KCOS/COS METAR and TAF weather

Enter ICAO airport designator
Station Type Date Time Source
KCOS METAR 2022/12/04 10:54 UTC NOAA

KCOS 041054Z 35004KT 10SM BKN250 03/M06 A3021 RMK AO2 SLP237 T00281061 $


Station Type Date Time Source
KCOS Decoded METAR 2022/12/04 10:54 UTC NOAA

COLORADO SPRINGS MUNI, CO, United States (KCOS) 38-49N 104-43W 1856M
Dec 04, 2022 - 05:54 AM EST / 2022.12.04 1054 UTC
Wind: from the N (350 degrees) at 5 MPH (4 KT):0
Visibility: 10 mile(s):0
Sky conditions: mostly cloudy
Temperature: 37.0 F (2.8 C)
Dew Point: 21.0 F (-6.1 C)
Relative Humidity: 51%
Pressure (altimeter): 30.21 in. Hg (1023 hPa)
ob: KCOS 041054Z 35004KT 10SM BKN250 03/M06 A3021 RMK AO2 SLP237 T00281061
cycle: 11

Station Type Date Time Source
KCOS TAF 2022/12/04 06:57 UTC NOAA

TAF KCOS 040555Z 0406/0506 08006KT P6SM FEW120 BKN200
FM041000 01006KT P6SM BKN200
FM041700 16012KT P6SM BKN250
FM050200 03006KT P6SM SCT250

Example: see airport list